Latest Weather Observations for Hay Point

IDQ60801

Issued at 12:32 pm EST Sunday 5 July 2015 (issued every 30 minutes, with the page automatically refreshed every 10 minutes)

About weather observations | Map of weather stations | Latest weather observations for QLD | Other Formats
Station Details ID: 033317 Name: HAY POINT Lat: -21.29 Lon: 149.30 Height: 7.0 m
Data from the previous 72 hours. | See also: Recent months for locations in Queensland
Date/Time
EST
Temp
°C
App
Temp
°C
Dew
Point
Rel
Hum
%
Delta-T
°C
Wind Press
QNH
hPa
Press
MSL
hPa
Rain
since 9 am
mm
Dir
 
Spd
km/h
Gust
km/h
Spd
kts
Gust
kts
05/12:30pm - - - - - SSE 28 32 15 17 - - -
05/12:00pm - - - - - SSE 32 37 17 20 - - -
05/11:30am - - - - - SSE 32 37 17 20 - - -
05/11:00am - - - - - SSE 33 37 18 20 - - -
05/10:30am - - - - - SSE 35 39 19 21 - - -
05/10:00am - - - - - S 32 39 17 21 - - -
05/09:30am - - - - - S 26 37 14 20 - - -
05/09:00am - - - - - S 26 33 14 18 - - -
05/08:30am - - - - - SSW 24 30 13 16 - - -
05/08:00am - - - - - SSW 24 30 13 16 - - -
05/07:30am - - - - - SSW 20 28 11 15 - - -
05/07:00am - - - - - SSW 22 28 12 15 - - -
05/06:30am - - - - - SSW 20 26 11 14 - - -
05/06:00am - - - - - SW 22 30 12 16 - - -
05/05:30am - - - - - SSW 26 33 14 18 - - -
05/05:00am - - - - - SSW 22 28 12 15 - - -
05/04:30am - - - - - SSW 24 32 13 17 - - -
05/04:00am - - - - - SSW 20 26 11 14 - - -
05/03:30am - - - - - SSW 19 24 10 13 - - -
05/03:00am - - - - - SSW 24 28 13 15 - - -
05/02:30am - - - - - SSW 19 26 10 14 - - -
05/02:00am - - - - - SW 17 20 9 11 - - -
05/01:30am - - - - - SSW 22 26 12 14 - - -
05/01:00am - - - - - SSW 20 28 11 15 - - -
05/12:30am - - - - - S 22 28 12 15 - - -
05/12:00am - - - - - S 20 28 11 15 - - -
 
Date/Time
EST
Temp
°C
App
Temp
°C
Dew
Point
Rel
Hum
%
Delta-T
°C
Wind Press
QNH
hPa
Press
MSL
hPa
Rain
since 9 am
mm
Dir
 
Spd
km/h
Gust
km/h
Spd
kts
Gust
kts
04/11:30pm - - - - - S 20 28 11 15 - - -
04/11:00pm - - - - - S 19 28 10 15 - - -
04/10:30pm - - - - - S 19 26 10 14 - - -
04/10:00pm - - - - - S 22 28 12 15 - - -
04/09:30pm - - - - - SSW 17 26 9 14 - - -
04/09:00pm - - - - - SSW 19 26 10 14 - - -
04/08:30pm - - - - - SW 20 26 11 14 - - -
04/08:00pm - - - - - SW 17 19 9 10 - - -
04/07:30pm - - - - - SW 15 17 8 9 - - -
04/07:00pm - - - - - SW 15 20 8 11 - - -
04/06:30pm - - - - - SW 13 17 7 9 - - -
04/06:00pm - - - - - SW 13 17 7 9 - - -
04/05:30pm - - - - - SSW 17 22 9 12 - - -
04/05:00pm - - - - - S 17 26 9 14 - - -
04/04:30pm - - - - - S 24 28 13 15 - - -
04/04:00pm - - - - - SSE 28 33 15 18 - - -
04/03:30pm - - - - - S 26 32 14 17 - - -
04/03:00pm - - - - - S 24 32 13 17 - - -
04/02:30pm - - - - - SSE 32 37 17 20 - - -
04/02:00pm - - - - - S 30 39 16 21 - - -
04/01:30pm - - - - - S 28 37 15 20 - - -
04/01:00pm - - - - - S 30 39 16 21 - - -
04/12:30pm - - - - - S 32 39 17 21 - - -
04/12:00pm - - - - - S 33 39 18 21 - - -
04/11:30am - - - - - SSE 33 39 18 21 - - -
04/11:00am - - - - - S 33 43 18 23 - - -
04/10:30am - - - - - S 37 46 20 25 - - -
04/10:00am - - - - - S 33 46 18 25 - - -
04/09:30am - - - - - S 35 46 19 25 - - -
04/09:00am - - - - - S 30 39 16 21 - - -
04/08:30am - - - - - SSW 32 39 17 21 - - -
04/08:00am - - - - - SSW 30 39 16 21 - - -
04/07:30am - - - - - SSW 30 37 16 20 - - -
04/07:00am - - - - - SSW 32 41 17 22 - - -
04/06:30am - - - - - SSW 30 37 16 20 - - -
04/06:00am - - - - - SSW 33 41 18 22 - - -
04/05:30am - - - - - SSW 30 39 16 21 - - -
04/05:00am - - - - - SSW 30 37 16 20 - - -
04/04:30am - - - - - SSW 30 35 16 19 - - -
04/04:00am - - - - - SSW 26 30 14 16 - - -
04/03:30am - - - - - SSW 28 33 15 18 - - -
04/03:00am - - - - - SSW 30 35 16 19 - - -
04/02:30am - - - - - SW 20 26 11 14 - - -
04/02:00am - - - - - SW 17 22 9 12 - - -
04/01:30am - - - - - SW 17 20 9 11 - - -
04/01:00am - - - - - SW 17 24 9 13 - - -
04/12:30am - - - - - SW 20 26 11 14 - - -
04/12:00am - - - - - SW 22 28 12 15 - - -
 
Date/Time
EST
Temp
°C
App
Temp
°C
Dew
Point
Rel
Hum
%
Delta-T
°C
Wind Press
QNH
hPa
Press
MSL
hPa
Rain
since 9 am
mm
Dir
 
Spd
km/h
Gust
km/h
Spd
kts
Gust
kts
03/11:30pm - - - - - SW 19 24 10 13 - - -
03/11:00pm - - - - - S 28 37 15 20 - - -
03/10:30pm - - - - - SE 30 37 16 20 - - -
03/10:00pm - - - - - SE 33 41 18 22 - - -
03/09:30pm - - - - - ESE 32 37 17 20 - - -
03/09:00pm - - - - - ESE 33 39 18 21 - - -
03/08:30pm - - - - - ESE 30 37 16 20 - - -
03/08:00pm - - - - - ESE 28 33 15 18 - - -
03/07:30pm - - - - - ESE 28 32 15 17 - - -
03/07:00pm - - - - - ESE 26 33 14 18 - - -
03/06:30pm - - - - - ESE 24 30 13 16 - - -
03/06:00pm - - - - - SE 20 28 11 15 - - -
03/05:30pm - - - - - ESE 22 28 12 15 - - -
03/05:00pm - - - - - SE 22 28 12 15 - - -
03/04:30pm - - - - - ESE 22 26 12 14 - - -
03/04:00pm - - - - - ESE 20 26 11 14 - - -
03/03:30pm - - - - - ESE 22 28 12 15 - - -
03/03:00pm - - - - - ESE 24 28 13 15 - - -
03/02:30pm - - - - - ESE 20 26 11 14 - - -
03/02:00pm - - - - - SE 17 26 9 14 - - -
03/01:30pm - - - - - SE 17 22 9 12 - - -
03/01:00pm - - - - - SE 17 22 9 12 - - -
03/12:30pm - - - - - SSE 17 26 9 14 - - -
03/12:00pm - - - - - SSE 19 24 10 13 - - -
03/11:30am - - - - - SSE 20 28 11 15 - - -
03/11:00am - - - - - S 22 30 12 16 - - -
03/10:30am - - - - - S 22 30 12 16 - - -
03/10:00am - - - - - S 22 30 12 16 - - -
03/09:30am - - - - - SSW 24 32 13 17 - - -
03/09:00am - - - - - SSW 28 35 15 19 - - -
03/08:30am - - - - - SSW 28 35 15 19 - - -
03/08:00am - - - - - SSW 26 32 14 17 - - -
03/07:30am - - - - - SSW 28 35 15 19 - - -
03/07:00am - - - - - SSW 20 30 11 16 - - -
03/06:30am - - - - - SSW 28 35 15 19 - - -
03/06:00am - - - - - SSW 35 48 19 26 - - -
03/05:30am - - - - - S 41 54 22 29 - - -
03/05:00am - - - - - SSW 35 44 19 24 - - -
03/04:30am - - - - - SSW 35 50 19 27 - - -
03/04:00am - - - - - S 35 46 19 25 - - -
03/03:30am - - - - - S 33 46 18 25 - - -
03/03:00am - - - - - SSW 30 37 16 20 - - -
03/02:30am - - - - - SSW 30 35 16 19 - - -
03/02:00am - - - - - SSW 24 32 13 17 - - -
03/01:30am - - - - - SSW 19 28 10 15 - - -
03/01:00am - - - - - SW 17 20 9 11 - - -
03/12:30am - - - - - SW 17 20 9 11 - - -
03/12:00am - - - - - SSW 17 19 9 10 - - -
 
Date/Time
EST
Temp
°C
App
Temp
°C
Dew
Point
Rel
Hum
%
Delta-T
°C
Wind Press
QNH
hPa
Press
MSL
hPa
Rain
since 9 am
mm
Dir
 
Spd
km/h
Gust
km/h
Spd
kts
Gust
kts
02/11:30pm - - - - - SW 19 20 10 11 - - -
02/11:00pm - - - - - SW 15 17 8 9 - - -
02/10:30pm - - - - - SW 11 13 6 7 - - -
02/10:00pm - - - - - WSW 11 13 6 7 - - -
02/09:30pm - - - - - SW 7 9 4 5 - - -
02/09:00pm - - - - - WSW 7 7 4 4 - - -
02/08:30pm - - - - - WSW 7 9 4 5 - - -
02/08:00pm - - - - - WSW 9 11 5 6 - - -
02/07:30pm - - - - - WSW 9 13 5 7 - - -
02/07:00pm - - - - - ENE 7 9 4 5 - - -
02/06:30pm - - - - - ENE 7 9 4 5 - - -
02/06:00pm - - - - - E 9 11 5 6 - - -
02/05:30pm - - - - - E 13 15 7 8 - - -
02/05:00pm - - - - - E 17 19 9 10 - - -
02/04:30pm - - - - - ESE 19 22 10 12 - - -
02/04:00pm - - - - - ESE 20 26 11 14 - - -
02/03:30pm - - - - - ESE 22 26 12 14 - - -
02/03:00pm - - - - - ESE 24 26 13 14 - - -
02/02:30pm - - - - - ESE 26 30 14 16 - - -
02/02:00pm - - - - - ESE 24 28 13 15 - - -
02/01:30pm - - - - - ESE 24 30 13 16 - - -
02/01:00pm - - - - - SE 26 30 14 16 - - -

Other Formats:

Comma delimited format used in spreadsheet applications
http://www.bom.gov.au/fwo/IDQ60801/IDQ60801.99367.axf

JavaScript Object Notation format (JSON) in row-major order
http://www.bom.gov.au/fwo/IDQ60801/IDQ60801.99367.json